sensor_id;sensor_type;location;lat;lon;timestamp;pressure;altitude;pressure_sealevel;temperature;humidity
53116;BME280;39010;48.088;7.954;2022-09-24T08:53:56;98298.19;;;20.36;62.18
53116;BME280;39010;48.088;7.954;2022-09-24T09:00:30;98318.03;;;18.43;86.73
53116;BME280;39010;48.088;7.954;2022-09-24T09:03:10;98316.47;;;17.47;94.46
53116;BME280;39010;48.088;7.954;2022-09-24T09:06:18;98318.16;;;16.63;98.42
53116;BME280;39010;48.088;7.954;2022-09-24T09:09:03;98313.03;;;16.55;99.96
53116;BME280;39010;48.088;7.954;2022-09-24T09:11:35;98314.50;;;16.20;100.00
53116;BME280;39010;48.088;7.954;2022-09-24T09:14:11;98306.69;;;16.12;100.00
53116;BME280;39010;48.088;7.954;2022-09-24T09:16:57;98311.34;;;16.23;100.00
53116;BME280;39010;48.088;7.954;2022-09-24T09:19:29;98305.88;;;16.11;100.00
53116;BME280;39010;48.088;7.954;2022-09-24T09:22:06;98309.63;;;16.10;100.00
53116;BME280;39010;48.088;7.954;2022-09-24T09:24:49;98318.22;;;16.07;100.00
53116;BME280;39010;48.088;7.954;2022-09-24T09:27:18;98313.84;;;16.06;100.00
53116;BME280;39010;48.088;7.954;2022-09-24T09:29:56;98316.69;;;16.11;100.00
53116;BME280;39010;48.088;7.954;2022-09-24T09:38:00;98317.50;;;16.12;94.04
53116;BME280;39010;48.088;7.954;2022-09-24T09:40:34;98323.97;;;15.92;100.00
53116;BME280;39010;48.088;7.954;2022-09-24T09:43:03;98324.53;;;16.01;92.42
53116;BME280;39010;48.088;7.954;2022-09-24T09:48:01;98309.47;;;16.05;90.12
53116;BME280;39010;48.088;7.954;2022-09-24T09:50:36;98324.28;;;15.84;98.35
53116;BME280;39010;48.088;7.954;2022-09-24T09:53:05;98331.00;;;16.00;100.00
53116;BME280;39010;48.088;7.954;2022-09-24T09:55:35;98325.78;;;16.17;92.54
53116;BME280;39010;48.088;7.954;2022-09-24T09:58:30;98320.75;;;16.02;89.52
53116;BME280;39010;48.088;7.954;2022-09-24T10:01:06;98325.41;;;15.95;88.88
53116;BME280;39010;48.088;7.954;2022-09-24T10:06:12;98318.56;;;16.29;86.08
53116;BME280;39010;48.088;7.954;2022-09-24T10:08:39;98320.66;;;16.46;86.58
53116;BME280;39010;48.088;7.954;2022-09-24T10:11:13;98319.06;;;16.57;87.53
53116;BME280;39010;48.088;7.954;2022-09-24T10:13:40;98314.84;;;16.61;87.05
53116;BME280;39010;48.088;7.954;2022-09-24T10:16:12;98316.78;;;16.72;83.77
53116;BME280;39010;48.088;7.954;2022-09-24T10:18:48;98320.56;;;16.53;85.45
53116;BME280;39010;48.088;7.954;2022-09-24T10:21:32;98320.59;;;16.34;85.70
53116;BME280;39010;48.088;7.954;2022-09-24T10:24:04;98328.59;;;16.29;86.13
53116;BME280;39010;48.088;7.954;2022-09-24T10:26:42;98315.06;;;16.10;87.03
53116;BME280;39010;48.088;7.954;2022-09-24T10:29:17;98324.22;;;16.09;87.49
53116;BME280;39010;48.088;7.954;2022-09-24T10:32:04;98324.22;;;16.09;87.46
53116;BME280;39010;48.088;7.954;2022-09-24T10:34:31;98319.41;;;16.11;88.34
53116;BME280;39010;48.088;7.954;2022-09-24T10:37:02;98318.25;;;16.19;88.93
53116;BME280;39010;48.088;7.954;2022-09-24T10:39:35;98308.78;;;16.10;87.71
53116;BME280;39010;48.088;7.954;2022-09-24T10:42:02;98309.97;;;16.32;87.49
53116;BME280;39010;48.088;7.954;2022-09-24T10:44:31;98316.56;;;17.28;86.57
53116;BME280;39010;48.088;7.954;2022-09-24T10:50:18;98308.78;;;18.03;82.04
53116;BME280;39010;48.088;7.954;2022-09-24T10:55:35;98303.03;;;17.64;80.44
53116;BME280;39010;48.088;7.954;2022-09-24T11:01:30;98299.97;;;17.48;79.43
53116;BME280;39010;48.088;7.954;2022-09-24T11:04:17;98296.38;;;17.24;78.96
53116;BME280;39010;48.088;7.954;2022-09-24T11:09:51;98285.50;;;17.00;80.38
53116;BME280;39010;48.088;7.954;2022-09-24T11:15:31;98293.75;;;17.05;79.21
53116;BME280;39010;48.088;7.954;2022-09-24T11:29:04;98268.09;;;17.67;75.15
53116;BME280;39010;48.088;7.954;2022-09-24T11:34:27;98264.88;;;17.82;74.96
53116;BME280;39010;48.088;7.954;2022-09-24T11:40:01;98266.50;;;18.48;73.11
53116;BME280;39010;48.088;7.954;2022-09-24T11:42:46;98262.22;;;19.16;66.65
53116;BME280;39010;48.088;7.954;2022-09-24T11:49:59;98255.78;;;19.78;66.44
53116;BME280;39010;48.088;7.954;2022-09-24T11:55:49;98244.38;;;20.48;65.26
53116;BME280;39010;48.088;7.954;2022-09-24T11:58:25;98243.09;;;20.06;66.44
53116;BME280;39010;48.088;7.954;2022-09-24T12:01:19;98230.22;;;20.24;65.51
53116;BME280;39010;48.088;7.954;2022-09-24T12:04:11;98247.09;;;19.59;64.51
53116;BME280;39010;48.088;7.954;2022-09-24T12:06:51;98233.78;;;19.06;65.71
53116;BME280;39010;48.088;7.954;2022-09-24T12:09:26;98229.09;;;19.58;64.94
53116;BME280;39010;48.088;7.954;2022-09-24T12:12:14;98221.34;;;20.11;61.08
53116;BME280;39010;48.088;7.954;2022-09-24T12:14:43;98223.09;;;19.95;58.58
53116;BME280;39010;48.088;7.954;2022-09-24T12:17:31;98222.84;;;21.07;58.28
53116;BME280;39010;48.088;7.954;2022-09-24T12:20:04;98210.97;;;21.28;54.76
53116;BME280;39010;48.088;7.954;2022-09-24T12:22:37;98218.69;;;20.44;58.12
53116;BME280;39010;48.088;7.954;2022-09-24T12:25:09;98221.28;;;20.06;58.71
53116;BME280;39010;48.088;7.954;2022-09-24T12:27:37;98214.19;;;20.55;57.67
53116;BME280;39010;48.088;7.954;2022-09-24T12:30:33;98215.69;;;21.00;56.18
53116;BME280;39010;48.088;7.954;2022-09-24T12:36:38;98203.88;;;21.70;51.80
53116;BME280;39010;48.088;7.954;2022-09-24T12:39:11;98202.16;;;21.59;50.50
53116;BME280;39010;48.088;7.954;2022-09-24T12:41:44;98197.44;;;22.13;49.42
53116;BME280;39010;48.088;7.954;2022-09-24T12:44:17;98196.78;;;22.69;50.44
53116;BME280;39010;48.088;7.954;2022-09-24T12:46:53;98204.16;;;22.79;50.81
53116;BME280;39010;48.088;7.954;2022-09-24T12:51:51;98198.00;;;21.08;50.00
53116;BME280;39010;48.088;7.954;2022-09-24T12:54:27;98195.75;;;21.43;51.36
53116;BME280;39010;48.088;7.954;2022-09-24T12:57:11;98202.66;;;21.51;50.80
53116;BME280;39010;48.088;7.954;2022-09-24T13:02:24;98188.66;;;20.99;52.57
53116;BME280;39010;48.088;7.954;2022-09-24T13:07:34;98190.31;;;20.12;57.56
53116;BME280;39010;48.088;7.954;2022-09-24T13:12:44;98186.13;;;19.82;63.17
53116;BME280;39010;48.088;7.954;2022-09-24T13:15:31;98189.09;;;19.58;62.67
53116;BME280;39010;48.088;7.954;2022-09-24T13:20:37;98191.72;;;19.31;64.21
53116;BME280;39010;48.088;7.954;2022-09-24T13:23:13;98188.75;;;19.33;65.62
53116;BME280;39010;48.088;7.954;2022-09-24T13:25:52;98189.13;;;19.41;64.05
53116;BME280;39010;48.088;7.954;2022-09-24T13:28:24;98188.72;;;19.50;64.06
53116;BME280;39010;48.088;7.954;2022-09-24T13:31:17;98185.69;;;19.29;62.76
53116;BME280;39010;48.088;7.954;2022-09-24T13:34:00;98176.47;;;18.96;64.06
53116;BME280;39010;48.088;7.954;2022-09-24T13:36:37;98170.56;;;18.82;63.55
53116;BME280;39010;48.088;7.954;2022-09-24T13:39:26;98177.72;;;18.71;62.53
53116;BME280;39010;48.088;7.954;2022-09-24T13:44:56;98169.72;;;18.81;62.61
53116;BME280;39010;48.088;7.954;2022-09-24T13:50:02;98160.03;;;19.03;63.45
53116;BME280;39010;48.088;7.954;2022-09-24T13:52:47;98161.97;;;18.73;64.32
53116;BME280;39010;48.088;7.954;2022-09-24T13:55:23;98160.06;;;18.91;64.18
53116;BME280;39010;48.088;7.954;2022-09-24T13:57:51;98158.63;;;19.00;63.13
53116;BME280;39010;48.088;7.954;2022-09-24T14:00:21;98153.00;;;18.90;63.51
53116;BME280;39010;48.088;7.954;2022-09-24T14:02:53;98150.91;;;19.31;62.99
53116;BME280;39010;48.088;7.954;2022-09-24T14:05:20;98133.81;;;19.80;59.97
53116;BME280;39010;48.088;7.954;2022-09-24T14:07:56;98128.09;;;20.04;58.47
53116;BME280;39010;48.088;7.954;2022-09-24T14:10:24;98139.50;;;20.01;59.06
53116;BME280;39010;48.088;7.954;2022-09-24T14:13:22;98146.53;;;20.19;58.46
53116;BME280;39010;48.088;7.954;2022-09-24T14:15:57;98135.00;;;20.12;57.14
53116;BME280;39010;48.088;7.954;2022-09-24T14:18:26;98135.00;;;20.12;57.89
53116;BME280;39010;48.088;7.954;2022-09-24T14:20:58;98136.56;;;20.35;55.53
53116;BME280;39010;48.088;7.954;2022-09-24T14:23:33;98136.34;;;20.42;54.99
53116;BME280;39010;48.088;7.954;2022-09-24T14:26:02;98129.50;;;20.72;55.48
53116;BME280;39010;48.088;7.954;2022-09-24T14:28:29;98128.75;;;20.77;55.71
53116;BME280;39010;48.088;7.954;2022-09-24T14:30:58;98133.06;;;21.10;53.40
53116;BME280;39010;48.088;7.954;2022-09-24T14:33:29;98130.50;;;21.36;53.56
53116;BME280;39010;48.088;7.954;2022-09-24T14:35:57;98125.03;;;21.36;53.86
53116;BME280;39010;48.088;7.954;2022-09-24T14:38:28;98136.97;;;21.83;52.42
53116;BME280;39010;48.088;7.954;2022-09-24T14:41:19;98136.47;;;21.91;51.71
53116;BME280;39010;48.088;7.954;2022-09-24T14:43:52;98137.88;;;21.41;51.45
53116;BME280;39010;48.088;7.954;2022-09-24T14:46:56;98131.47;;;20.77;54.73
53116;BME280;39010;48.088;7.954;2022-09-24T14:49:29;98142.06;;;20.40;54.93
53116;BME280;39010;48.088;7.954;2022-09-24T14:52:00;98148.50;;;20.01;57.10
53116;BME280;39010;48.088;7.954;2022-09-24T14:54:35;98145.22;;;19.55;58.49
53116;BME280;39010;48.088;7.954;2022-09-24T14:57:23;98153.31;;;19.27;59.12
53116;BME280;39010;48.088;7.954;2022-09-24T14:59:51;98148.47;;;18.95;60.27
53116;BME280;39010;48.088;7.954;2022-09-24T15:04:55;98149.63;;;18.82;60.46
53116;BME280;39010;48.088;7.954;2022-09-24T15:07:31;98147.41;;;18.45;60.04
53116;BME280;39010;48.088;7.954;2022-09-24T15:10:00;98147.19;;;18.18;59.81
53116;BME280;39010;48.088;7.954;2022-09-24T15:12:31;98148.69;;;17.96;60.59
53116;BME280;39010;48.088;7.954;2022-09-24T15:15:25;98151.53;;;17.90;61.61
53116;BME280;39010;48.088;7.954;2022-09-24T15:17:53;98153.13;;;17.74;61.86
53116;BME280;39010;48.088;7.954;2022-09-24T15:20:19;98144.41;;;17.72;61.80
53116;BME280;39010;48.088;7.954;2022-09-24T15:22:46;98153.81;;;17.81;62.33
53116;BME280;39010;48.088;7.954;2022-09-24T15:25:13;98154.56;;;17.64;62.07
53116;BME280;39010;48.088;7.954;2022-09-24T15:27:41;98148.97;;;17.42;63.37
53116;BME280;39010;48.088;7.954;2022-09-24T15:30:17;98153.19;;;17.50;64.15
53116;BME280;39010;48.088;7.954;2022-09-24T15:32:45;98144.13;;;17.44;65.10
53116;BME280;39010;48.088;7.954;2022-09-24T15:35:13;98149.53;;;17.44;65.87
53116;BME280;39010;48.088;7.954;2022-09-24T15:37:40;98146.47;;;17.41;67.14
53116;BME280;39010;48.088;7.954;2022-09-24T15:40:27;98148.72;;;17.44;68.11
53116;BME280;39010;48.088;7.954;2022-09-24T15:42:56;98149.31;;;17.34;68.80
53116;BME280;39010;48.088;7.954;2022-09-24T15:45:24;98149.44;;;17.27;70.96
53116;BME280;39010;48.088;7.954;2022-09-24T15:47:51;98152.28;;;17.08;70.97
53116;BME280;39010;48.088;7.954;2022-09-24T15:50:19;98144.75;;;16.99;70.67
53116;BME280;39010;48.088;7.954;2022-09-24T15:52:50;98149.06;;;16.88;71.42
53116;BME280;39010;48.088;7.954;2022-09-24T15:55:19;98144.50;;;17.00;73.16
53116;BME280;39010;48.088;7.954;2022-09-24T15:57:46;98149.78;;;16.83;78.98
53116;BME280;39010;48.088;7.954;2022-09-24T16:00:17;98144.34;;;16.95;79.97
53116;BME280;39010;48.088;7.954;2022-09-24T16:02:47;98142.97;;;17.04;80.58
53116;BME280;39010;48.088;7.954;2022-09-24T16:05:16;98144.03;;;17.03;83.26
53116;BME280;39010;48.088;7.954;2022-09-24T16:07:45;98143.91;;;16.98;84.21
53116;BME280;39010;48.088;7.954;2022-09-24T16:10:13;98146.28;;;17.06;82.24
53116;BME280;39010;48.088;7.954;2022-09-24T16:12:40;98145.81;;;16.98;83.92
53116;BME280;39010;48.088;7.954;2022-09-24T16:15:11;98150.38;;;16.73;87.47
53116;BME280;39010;48.088;7.954;2022-09-24T16:17:38;98148.56;;;16.43;89.73
53116;BME280;39010;48.088;7.954;2022-09-24T16:20:07;98155.06;;;16.12;91.25
53116;BME280;39010;48.088;7.954;2022-09-24T16:22:36;98166.53;;;16.26;87.97
53116;BME280;39010;48.088;7.954;2022-09-24T16:25:04;98167.84;;;16.35;90.92
53116;BME280;39010;48.088;7.954;2022-09-24T16:27:30;98164.16;;;16.17;93.98
53116;BME280;39010;48.088;7.954;2022-09-24T16:29:57;98172.88;;;16.19;90.38
53116;BME280;39010;48.088;7.954;2022-09-24T16:32:23;98179.03;;;16.27;89.75
53116;BME280;39010;48.088;7.954;2022-09-24T16:34:50;98167.00;;;16.23;89.66
53116;BME280;39010;48.088;7.954;2022-09-24T16:37:20;98176.38;;;16.08;90.99
53116;BME280;39010;48.088;7.954;2022-09-24T16:39:47;98176.97;;;16.10;83.87
53116;BME280;39010;48.088;7.954;2022-09-24T16:42:13;98182.69;;;16.02;86.55
53116;BME280;39010;48.088;7.954;2022-09-24T16:44:40;98193.22;;;15.92;86.05
53116;BME280;39010;48.088;7.954;2022-09-24T16:47:07;98189.81;;;15.96;84.64
53116;BME280;39010;48.088;7.954;2022-09-24T16:49:34;98190.53;;;15.92;84.45
53116;BME280;39010;48.088;7.954;2022-09-24T16:52:01;98204.19;;;15.78;81.73
53116;BME280;39010;48.088;7.954;2022-09-24T16:54:28;98203.97;;;15.80;81.90
53116;BME280;39010;48.088;7.954;2022-09-24T16:56:59;98205.25;;;15.77;81.62
53116;BME280;39010;48.088;7.954;2022-09-24T16:59:27;98207.19;;;15.70;81.15
53116;BME280;39010;48.088;7.954;2022-09-24T17:01:53;98198.56;;;15.80;80.43
53116;BME280;39010;48.088;7.954;2022-09-24T17:04:20;98198.47;;;15.68;84.14
53116;BME280;39010;48.088;7.954;2022-09-24T17:06:48;98195.78;;;15.49;88.45
53116;BME280;39010;48.088;7.954;2022-09-24T17:09:14;98204.63;;;15.38;89.71
53116;BME280;39010;48.088;7.954;2022-09-24T17:12:00;98195.47;;;15.39;88.66
53116;BME280;39010;48.088;7.954;2022-09-24T17:14:26;98205.97;;;15.28;90.13
53116;BME280;39010;48.088;7.954;2022-09-24T17:16:58;98201.91;;;15.19;91.43
53116;BME280;39010;48.088;7.954;2022-09-24T17:19:25;98210.38;;;15.04;93.83
53116;BME280;39010;48.088;7.954;2022-09-24T17:21:52;98205.94;;;14.91;95.67
53116;BME280;39010;48.088;7.954;2022-09-24T17:24:19;98206.03;;;14.78;95.19
53116;BME280;39010;48.088;7.954;2022-09-24T17:26:48;98205.50;;;14.62;95.68
53116;BME280;39010;48.088;7.954;2022-09-24T17:29:16;98204.47;;;14.56;93.42
53116;BME280;39010;48.088;7.954;2022-09-24T17:31:47;98204.72;;;14.55;95.12
53116;BME280;39010;48.088;7.954;2022-09-24T17:34:14;98208.66;;;14.52;96.18
53116;BME280;39010;48.088;7.954;2022-09-24T17:36:41;98211.41;;;14.46;97.98
53116;BME280;39010;48.088;7.954;2022-09-24T17:39:11;98216.16;;;14.50;98.38
53116;BME280;39010;48.088;7.954;2022-09-24T17:41:38;98216.66;;;14.40;99.91
53116;BME280;39010;48.088;7.954;2022-09-24T17:44:04;98226.88;;;14.32;100.00
53116;BME280;39010;48.088;7.954;2022-09-24T17:46:32;98229.34;;;14.33;100.00
53116;BME280;39010;48.088;7.954;2022-09-24T17:49:05;98223.38;;;14.24;100.00
53116;BME280;39010;48.088;7.954;2022-09-24T17:51:34;98237.97;;;14.17;100.00
53116;BME280;39010;48.088;7.954;2022-09-24T17:54:10;98234.22;;;14.18;100.00
53116;BME280;39010;48.088;7.954;2022-09-24T17:56:37;98237.38;;;14.08;100.00
53116;BME280;39010;48.088;7.954;2022-09-24T17:59:07;98232.81;;;14.08;100.00
53116;BME280;39010;48.088;7.954;2022-09-24T18:01:36;98232.06;;;13.88;100.00
53116;BME280;39010;48.088;7.954;2022-09-24T18:04:12;98242.72;;;13.69;100.00
53116;BME280;39010;48.088;7.954;2022-09-24T18:06:40;98239.16;;;13.82;100.00
53116;BME280;39010;48.088;7.954;2022-09-24T18:09:09;98245.97;;;13.84;100.00
53116;BME280;39010;48.088;7.954;2022-09-24T18:11:41;98244.97;;;13.72;100.00
53116;BME280;39010;48.088;7.954;2022-09-24T18:14:26;98244.16;;;13.65;100.00
53116;BME280;39010;48.088;7.954;2022-09-24T18:16:53;98245.63;;;13.61;100.00
53116;BME280;39010;48.088;7.954;2022-09-24T18:19:20;98248.13;;;13.62;100.00
53116;BME280;39010;48.088;7.954;2022-09-24T18:21:48;98255.38;;;13.68;100.00
53116;BME280;39010;48.088;7.954;2022-09-24T18:24:16;98262.63;;;13.75;100.00
53116;BME280;39010;48.088;7.954;2022-09-24T18:26:43;98266.78;;;13.64;100.00
53116;BME280;39010;48.088;7.954;2022-09-24T18:29:15;98257.28;;;13.34;100.00
53116;BME280;39010;48.088;7.954;2022-09-24T18:31:43;98262.28;;;13.17;100.00
53116;BME280;39010;48.088;7.954;2022-09-24T18:34:12;98259.97;;;13.27;100.00
53116;BME280;39010;48.088;7.954;2022-09-24T18:36:41;98253.94;;;13.39;100.00
53116;BME280;39010;48.088;7.954;2022-09-24T18:39:11;98261.84;;;13.40;100.00
53116;BME280;39010;48.088;7.954;2022-09-24T18:41:39;98262.88;;;13.46;100.00
53116;BME280;39010;48.088;7.954;2022-09-24T18:44:07;98262.88;;;13.46;100.00
53116;BME280;39010;48.088;7.954;2022-09-24T18:46:34;98257.72;;;13.45;100.00
53116;BME280;39010;48.088;7.954;2022-09-24T18:49:01;98263.69;;;13.53;100.00
53116;BME280;39010;48.088;7.954;2022-09-24T18:51:30;98266.00;;;13.50;100.00
53116;BME280;39010;48.088;7.954;2022-09-24T18:53:59;98258.09;;;13.48;100.00
53116;BME280;39010;48.088;7.954;2022-09-24T18:56:27;98266.63;;;13.45;100.00
53116;BME280;39010;48.088;7.954;2022-09-24T18:59:03;98261.63;;;13.42;100.00
53116;BME280;39010;48.088;7.954;2022-09-24T19:01:36;98268.88;;;13.35;100.00
53116;BME280;39010;48.088;7.954;2022-09-24T19:04:03;98264.09;;;13.37;100.00
53116;BME280;39010;48.088;7.954;2022-09-24T19:06:32;98273.66;;;13.39;100.00
53116;BME280;39010;48.088;7.954;2022-09-24T19:08:59;98262.88;;;13.39;100.00
53116;BME280;39010;48.088;7.954;2022-09-24T19:11:26;98271.38;;;13.43;100.00
53116;BME280;39010;48.088;7.954;2022-09-24T19:13:53;98265.13;;;13.36;100.00
53116;BME280;39010;48.088;7.954;2022-09-24T19:16:22;98266.81;;;13.30;100.00
53116;BME280;39010;48.088;7.954;2022-09-24T19:18:50;98270.56;;;13.22;100.00
53116;BME280;39010;48.088;7.954;2022-09-24T19:21:18;98270.94;;;13.33;100.00
53116;BME280;39010;48.088;7.954;2022-09-24T19:23:47;98274.72;;;13.18;100.00
53116;BME280;39010;48.088;7.954;2022-09-24T19:26:20;98272.44;;;13.15;100.00
53116;BME280;39010;48.088;7.954;2022-09-24T19:28:48;98267.06;;;13.15;100.00
53116;BME280;39010;48.088;7.954;2022-09-24T19:31:24;98271.81;;;13.13;100.00
53116;BME280;39010;48.088;7.954;2022-09-24T19:33:52;98278.44;;;13.10;100.00
53116;BME280;39010;48.088;7.954;2022-09-24T19:36:20;98277.63;;;13.10;100.00
53116;BME280;39010;48.088;7.954;2022-09-24T19:38:52;98280.91;;;12.92;100.00
53116;BME280;39010;48.088;7.954;2022-09-24T19:41:20;98284.66;;;12.91;100.00
53116;BME280;39010;48.088;7.954;2022-09-24T19:43:51;98287.56;;;13.03;100.00
53116;BME280;39010;48.088;7.954;2022-09-24T19:46:20;98288.38;;;13.03;100.00
53116;BME280;39010;48.088;7.954;2022-09-24T19:48:51;98287.56;;;13.03;100.00
53116;BME280;39010;48.088;7.954;2022-09-24T19:51:28;98284.66;;;13.04;100.00
53116;BME280;39010;48.088;7.954;2022-09-24T19:53:57;98279.88;;;13.06;100.00
53116;BME280;39010;48.088;7.954;2022-09-24T19:56:29;98282.19;;;13.03;100.00
53116;BME280;39010;48.088;7.954;2022-09-24T19:58:58;98288.34;;;12.76;100.00
53116;BME280;39010;48.088;7.954;2022-09-24T20:01:27;98280.47;;;12.68;100.00
53116;BME280;39010;48.088;7.954;2022-09-24T20:03:55;98277.38;;;12.71;100.00
53116;BME280;39010;48.088;7.954;2022-09-24T20:06:25;98278.84;;;12.74;100.00
53116;BME280;39010;48.088;7.954;2022-09-24T20:08:54;98268.06;;;12.74;100.00
53116;BME280;39010;48.088;7.954;2022-09-24T20:11:23;98267.22;;;12.66;100.00
53116;BME280;39010;48.088;7.954;2022-09-24T20:13:52;98262.25;;;12.63;100.00
53116;BME280;39010;48.088;7.954;2022-09-24T20:16:21;98272.63;;;12.66;100.00
53116;BME280;39010;48.088;7.954;2022-09-24T20:18:53;98268.66;;;12.69;100.00
53116;BME280;39010;48.088;7.954;2022-09-24T20:21:25;98276.53;;;12.64;100.00
53116;BME280;39010;48.088;7.954;2022-09-24T20:23:56;98275.47;;;12.45;100.00
53116;BME280;39010;48.088;7.954;2022-09-24T20:26:23;98281.97;;;12.08;100.00
53116;BME280;39010;48.088;7.954;2022-09-24T20:29:09;98280.69;;;12.04;100.00
53116;BME280;39010;48.088;7.954;2022-09-24T20:31:44;98284.47;;;12.17;100.00
53116;BME280;39010;48.088;7.954;2022-09-24T20:34:21;98274.97;;;12.21;100.00
53116;BME280;39010;48.088;7.954;2022-09-24T20:36:48;98273.53;;;12.25;100.00
53116;BME280;39010;48.088;7.954;2022-09-24T20:39:16;98270.88;;;12.32;100.00
53116;BME280;39010;48.088;7.954;2022-09-24T20:41:42;98273.75;;;12.30;100.00
53116;BME280;39010;48.088;7.954;2022-09-24T20:44:09;98268.75;;;12.14;100.00
53116;BME280;39010;48.088;7.954;2022-09-24T20:46:37;98280.97;;;12.16;100.00
53116;BME280;39010;48.088;7.954;2022-09-24T20:49:04;98286.94;;;12.12;100.00
53116;BME280;39010;48.088;7.954;2022-09-24T20:51:31;98285.28;;;12.11;100.00
53116;BME280;39010;48.088;7.954;2022-09-24T20:53:59;98282.38;;;12.05;100.00
53116;BME280;39010;48.088;7.954;2022-09-24T20:56:26;98287.97;;;12.11;100.00
53116;BME280;39010;48.088;7.954;2022-09-24T20:58:56;98279.91;;;12.11;100.00
53116;BME280;39010;48.088;7.954;2022-09-24T21:01:23;98287.13;;;12.03;100.00
53116;BME280;39010;48.088;7.954;2022-09-24T21:03:50;98287.47;;;11.93;100.00
53116;BME280;39010;48.088;7.954;2022-09-24T21:06:18;98282.66;;;11.82;100.00
53116;BME280;39010;48.088;7.954;2022-09-24T21:08:48;98281.09;;;11.66;100.00
53116;BME280;39010;48.088;7.954;2022-09-24T21:11:17;98285.06;;;11.70;100.00
53116;BME280;39010;48.088;7.954;2022-09-24T21:13:50;98280.31;;;11.72;100.00
53116;BME280;39010;48.088;7.954;2022-09-24T21:16:22;98279.28;;;11.73;100.00
53116;BME280;39010;48.088;7.954;2022-09-24T21:18:50;98287.34;;;11.73;100.00
53116;BME280;39010;48.088;7.954;2022-09-24T21:21:21;98282.97;;;11.66;100.00
53116;BME280;39010;48.088;7.954;2022-09-24T21:23:50;98281.66;;;11.55;100.00
53116;BME280;39010;48.088;7.954;2022-09-24T21:26:23;98274.59;;;11.47;100.00
53116;BME280;39010;48.088;7.954;2022-09-24T21:28:52;98277.50;;;11.52;100.00
53116;BME280;39010;48.088;7.954;2022-09-24T21:31:22;98282.69;;;11.54;100.00
53116;BME280;39010;48.088;7.954;2022-09-24T21:33:50;98267.97;;;11.49;100.00
53116;BME280;39010;48.088;7.954;2022-09-24T21:36:22;98276.88;;;11.50;100.00
53116;BME280;39010;48.088;7.954;2022-09-24T21:38:58;98273.53;;;11.41;100.00
53116;BME280;39010;48.088;7.954;2022-09-24T21:41:27;98267.50;;;11.39;100.00
53116;BME280;39010;48.088;7.954;2022-09-24T21:43:54;98277.19;;;11.33;100.00
53116;BME280;39010;48.088;7.954;2022-09-24T21:46:22;98278.97;;;11.26;100.00
53116;BME280;39010;48.088;7.954;2022-09-24T21:48:50;98283.94;;;11.23;100.00
53116;BME280;39010;48.088;7.954;2022-09-24T21:51:17;98283.53;;;11.26;100.00
53116;BME280;39010;48.088;7.954;2022-09-24T21:54:00;98288.91;;;11.26;100.00
53116;BME280;39010;48.088;7.954;2022-09-24T21:56:29;98284.50;;;11.18;100.00
53116;BME280;39010;48.088;7.954;2022-09-24T21:58:57;98284.72;;;11.16;100.00
53116;BME280;39010;48.088;7.954;2022-09-24T22:01:28;98281.19;;;11.16;100.00
53116;BME280;39010;48.088;7.954;2022-09-24T22:03:58;98286.75;;;11.14;100.00
53116;BME280;39010;48.088;7.954;2022-09-24T22:06:27;98280.94;;;11.11;100.00
53116;BME280;39010;48.088;7.954;2022-09-24T22:08:56;98278.84;;;11.06;100.00
53116;BME280;39010;48.088;7.954;2022-09-24T22:11:24;98286.91;;;11.06;100.00
53116;BME280;39010;48.088;7.954;2022-09-24T22:13:57;98285.00;;;11.00;100.00
53116;BME280;39010;48.088;7.954;2022-09-24T22:16:27;98275.69;;;11.02;100.00
53116;BME280;39010;48.088;7.954;2022-09-24T22:18:54;98289.34;;;11.01;100.00
53116;BME280;39010;48.088;7.954;2022-09-24T22:21:21;98284.59;;;11.03;100.00
53116;BME280;39010;48.088;7.954;2022-09-24T22:23:47;98287.28;;;11.03;100.00
53116;BME280;39010;48.088;7.954;2022-09-24T22:26:14;98277.19;;;11.05;100.00
53116;BME280;39010;48.088;7.954;2022-09-24T22:28:41;98285.88;;;11.07;100.00
53116;BME280;39010;48.088;7.954;2022-09-24T22:31:11;98279.72;;;11.13;100.00
53116;BME280;39010;48.088;7.954;2022-09-24T22:33:38;98285.66;;;11.09;100.00
53116;BME280;39010;48.088;7.954;2022-09-24T22:36:26;98282.56;;;11.05;100.00
53116;BME280;39010;48.088;7.954;2022-09-24T22:38:54;98284.66;;;11.10;100.00
53116;BME280;39010;48.088;7.954;2022-09-24T22:41:23;98288.81;;;11.12;100.00
53116;BME280;39010;48.088;7.954;2022-09-24T22:43:50;98283.44;;;11.12;100.00
53116;BME280;39010;48.088;7.954;2022-09-24T22:46:18;98283.06;;;11.15;100.00
53116;BME280;39010;48.088;7.954;2022-09-24T22:48:45;98269.88;;;11.20;100.00
53116;BME280;39010;48.088;7.954;2022-09-24T22:51:13;98280.59;;;11.20;100.00
53116;BME280;39010;48.088;7.954;2022-09-24T22:53:40;98281.44;;;11.21;100.00
53116;BME280;39010;48.088;7.954;2022-09-24T22:56:10;98288.84;;;11.19;100.00
53116;BME280;39010;48.088;7.954;2022-09-24T22:58:39;98279.38;;;11.23;100.00
53116;BME280;39010;48.088;7.954;2022-09-24T23:01:12;98282.06;;;11.23;100.00
53116;BME280;39010;48.088;7.954;2022-09-24T23:03:40;98270.50;;;11.23;100.00
53116;BME280;39010;48.088;7.954;2022-09-24T23:06:06;98271.13;;;11.25;100.00
53116;BME280;39010;48.088;7.954;2022-09-24T23:08:35;98273.44;;;11.28;100.00
53116;BME280;39010;48.088;7.954;2022-09-24T23:11:05;98270.28;;;11.24;100.00
53116;BME280;39010;48.088;7.954;2022-09-24T23:13:32;98262.44;;;11.23;100.00
53116;BME280;39010;48.088;7.954;2022-09-24T23:16:20;98253.75;;;11.20;100.00
53116;BME280;39010;48.088;7.954;2022-09-24T23:18:49;98252.88;;;11.13;100.00
53116;BME280;39010;48.088;7.954;2022-09-24T23:21:17;98254.91;;;11.11;100.00
53116;BME280;39010;48.088;7.954;2022-09-24T23:23:45;98251.97;;;11.06;100.00
53116;BME280;39010;48.088;7.954;2022-09-24T23:26:14;98243.28;;;11.04;100.00
53116;BME280;39010;48.088;7.954;2022-09-24T23:28:44;98243.28;;;11.04;100.00
53116;BME280;39010;48.088;7.954;2022-09-24T23:31:13;98248.59;;;10.97;100.00